Terminal Aerodrome Forecast
Issued by NWS

Home | Current Version | Previous Version | Text Only | Print | Product List | Glossary On
Versions: 1 2 3 4 5 6 7 8 9 10 11 12 13 14
000
FTUS45 KRIW 271100
TAFLND
TAF
KLND 271124Z 2712/2812 23007KT P6SM FEW050 SCT080
     FM271700 VRB05KT P6SM VCSH SCT040 BKN080
     FM272200 VRB12G18KT P6SM VCTS SCT040 BKN070CB
     FM280300 23007KT P6SM VCSH BKN070=

USA.gov is the U.S. government's official web portal to all federal, state and local government web resources and services.